createdAt,value
2023-09-30T00:04:08.557Z,12.65
2023-09-30T00:09:10.384Z,13.38
2023-09-30T00:14:12.085Z,17.17
2023-09-30T00:19:14.696Z,15.63
2023-09-30T00:24:16.355Z,17.25
2023-09-30T00:29:19.033Z,13.18
2023-09-30T00:34:20.678Z,14.32
2023-09-30T00:39:22.368Z,17.48
2023-09-30T00:44:23.964Z,16.02
2023-09-30T00:49:26.297Z,13.73
2023-09-30T00:54:28.696Z,16.33
2023-09-30T00:59:33.564Z,13.40
2023-09-30T01:04:35.291Z,14.75
2023-09-30T01:09:37.823Z,13.82
2023-09-30T01:14:39.892Z,14.68
2023-09-30T01:19:44.052Z,13.38
2023-09-30T01:24:48.732Z,14.07
2023-09-30T01:29:51.501Z,12.77
2023-09-30T01:34:53.097Z,13.10
2023-09-30T01:39:56.228Z,12.00
2023-09-30T01:44:59.043Z,15.77
2023-09-30T01:50:00.699Z,11.77
2023-09-30T01:55:02.411Z,11.40
2023-09-30T02:00:06.068Z,9.85
2023-09-30T02:05:10.785Z,11.27
2023-09-30T02:10:12.882Z,12.55
2023-09-30T02:15:15.493Z,10.45
2023-09-30T02:20:20.357Z,10.98
2023-09-30T02:25:22.270Z,11.75
2023-09-30T02:30:24.168Z,11.50
2023-09-30T02:35:27.225Z,10.30
2023-09-30T02:40:28.913Z,10.63
2023-09-30T02:45:30.606Z,12.10
2023-09-30T02:50:32.341Z,9.75
2023-09-30T02:55:33.971Z,9.63
2023-09-30T03:00:37.099Z,9.27
2023-09-30T03:05:38.855Z,9.50
2023-09-30T03:10:42.080Z,8.60
2023-09-30T03:15:43.895Z,10.68
2023-09-30T03:20:45.512Z,9.02
2023-09-30T03:25:47.130Z,10.32
2023-09-30T03:30:48.805Z,10.73
2023-09-30T03:35:50.502Z,10.40
2023-09-30T03:40:54.236Z,9.95
2023-09-30T03:45:56.706Z,13.27
2023-09-30T03:50:58.744Z,11.93
2023-09-30T03:56:00.649Z,9.95
2023-09-30T04:01:02.421Z,9.57
2023-09-30T04:06:04.305Z,10.02
2023-09-30T04:11:06.055Z,10.30
2023-09-30T04:16:08.593Z,12.27
2023-09-30T04:21:10.308Z,9.52
2023-09-30T04:26:11.918Z,9.93
2023-09-30T04:31:14.509Z,11.73
2023-09-30T04:36:16.373Z,9.45
2023-09-30T04:41:18.073Z,9.57
2023-09-30T04:46:21.847Z,9.85
2023-09-30T04:51:23.618Z,10.10
2023-09-30T04:56:26.424Z,9.02
2023-09-30T05:01:29.000Z,9.13
2023-09-30T05:06:33.897Z,9.15
2023-09-30T05:11:36.550Z,14.00
2023-09-30T05:16:38.382Z,12.15
2023-09-30T05:21:40.150Z,11.63
2023-09-30T05:26:41.844Z,11.10
2023-09-30T05:31:43.748Z,10.60
2023-09-30T05:36:45.475Z,9.45
2023-09-30T05:41:48.023Z,9.05
2023-09-30T05:46:49.737Z,13.50
2023-09-30T05:51:52.030Z,8.93
2023-09-30T05:56:53.666Z,10.85
2023-09-30T06:01:55.310Z,8.20
2023-09-30T06:06:57.783Z,8.90
2023-09-30T06:12:00.889Z,8.68
2023-09-30T06:17:03.637Z,7.45
2023-09-30T06:22:06.047Z,7.82
2023-09-30T06:27:07.625Z,8.35
2023-09-30T06:32:09.471Z,4.97
2023-09-30T06:37:11.390Z,4.25
2023-09-30T06:42:13.006Z,4.00
2023-09-30T06:47:14.594Z,2.58
2023-09-30T06:52:16.267Z,7.20
2023-09-30T06:57:17.921Z,3.78
2023-09-30T07:02:19.575Z,6.88
2023-09-30T07:07:21.161Z,6.63
2023-09-30T07:12:23.728Z,5.40
2023-09-30T07:17:25.360Z,5.93
2023-09-30T07:22:43.593Z,7.18
2023-09-30T07:27:49.026Z,5.13
2023-09-30T07:32:51.482Z,6.53
2023-09-30T07:37:54.423Z,8.15
2023-09-30T07:42:57.628Z,6.65
2023-09-30T07:47:59.890Z,3.13
2023-09-30T07:53:02.052Z,5.57
2023-09-30T07:58:04.483Z,5.97
2023-09-30T08:03:07.530Z,7.32
2023-09-30T08:08:09.760Z,5.53
2023-09-30T08:13:11.386Z,6.32
2023-09-30T08:18:13.139Z,4.80
2023-09-30T08:23:14.895Z,4.68
2023-09-30T08:28:17.384Z,6.82
2023-09-30T08:33:19.021Z,4.30
2023-09-30T08:38:20.713Z,5.93
2023-09-30T08:43:28.882Z,4.95
2023-09-30T08:48:33.667Z,4.75
2023-09-30T08:53:36.422Z,5.15
2023-09-30T08:58:38.711Z,4.80
2023-09-30T09:03:40.451Z,5.63
2023-09-30T09:08:42.358Z,4.47
2023-09-30T09:13:50.646Z,7.75
2023-09-30T09:18:52.483Z,5.93
2023-09-30T09:23:55.228Z,5.53
2023-09-30T09:29:06.020Z,6.60
2023-09-30T09:34:15.444Z,5.55
2023-09-30T09:39:17.815Z,4.05
2023-09-30T09:44:24.043Z,5.28
2023-09-30T09:49:26.973Z,5.22
2023-09-30T09:54:30.515Z,4.60
2023-09-30T09:59:33.502Z,4.32
2023-09-30T10:04:35.201Z,3.13
2023-09-30T10:09:37.350Z,4.25
2023-09-30T10:14:39.145Z,5.57
2023-09-30T10:20:10.894Z,3.63
2023-09-30T10:25:37.305Z,5.63
2023-09-30T10:30:39.088Z,4.93
2023-09-30T10:35:40.702Z,4.53
2023-09-30T10:40:42.382Z,5.10
2023-09-30T10:45:46.066Z,3.25
2023-09-30T10:50:52.147Z,7.13
2023-09-30T10:56:01.453Z,5.95
2023-09-30T11:01:03.652Z,6.90
2023-09-30T11:11:09.944Z,5.95
2023-09-30T11:16:11.827Z,7.53
2023-09-30T11:21:14.663Z,11.25
2023-09-30T11:26:16.439Z,8.57
2023-09-30T11:31:19.420Z,6.78
2023-09-30T11:36:22.990Z,5.63
2023-09-30T11:41:34.555Z,8.20
2023-09-30T11:46:56.914Z,4.40
2023-09-30T11:52:01.686Z,10.77
2023-09-30T11:57:04.532Z,7.82
2023-09-30T12:02:15.116Z,6.85
2023-09-30T12:07:17.155Z,4.75
2023-09-30T12:12:19.104Z,4.80
2023-09-30T12:17:22.597Z,9.50
2023-09-30T12:22:24.268Z,6.45
2023-09-30T12:27:26.069Z,5.95
2023-09-30T12:32:28.008Z,5.75
2023-09-30T12:37:30.438Z,7.78
2023-09-30T12:42:32.105Z,5.32
2023-09-30T12:47:33.771Z,13.07
2023-09-30T12:52:35.902Z,4.80
2023-09-30T12:57:37.950Z,7.63
2023-09-30T13:02:39.799Z,8.90
2023-09-30T13:07:41.499Z,5.90
2023-09-30T13:12:43.172Z,7.28
2023-09-30T13:17:45.096Z,6.53
2023-09-30T13:22:46.908Z,7.63
2023-09-30T13:27:48.552Z,5.70
2023-09-30T13:32:50.585Z,6.43
2023-09-30T13:37:52.421Z,4.47
2023-09-30T13:42:54.151Z,4.47
2023-09-30T13:47:55.824Z,6.25
2023-09-30T13:52:58.145Z,9.13
2023-09-30T13:57:59.822Z,6.10
2023-09-30T14:03:01.787Z,8.32
2023-09-30T14:08:04.777Z,6.03
2023-09-30T14:13:06.585Z,7.68
2023-09-30T14:18:09.174Z,7.15
2023-09-30T14:23:11.015Z,5.95
2023-09-30T14:28:12.760Z,7.30
2023-09-30T14:33:14.698Z,9.40
2023-09-30T14:38:16.311Z,7.82
2023-09-30T14:43:17.917Z,6.80
2023-09-30T14:48:19.527Z,9.10
2023-09-30T14:53:21.197Z,6.47
2023-09-30T14:58:22.839Z,6.18
2023-09-30T15:03:24.509Z,6.45
2023-09-30T15:08:26.157Z,5.75
2023-09-30T15:13:28.252Z,7.30
2023-09-30T15:18:30.055Z,5.35
2023-09-30T15:23:33.530Z,7.30
2023-09-30T15:28:35.661Z,8.13
2023-09-30T15:33:37.855Z,5.53
2023-09-30T15:38:39.501Z,5.65
2023-09-30T15:43:41.372Z,6.55
2023-09-30T15:48:43.018Z,8.75
2023-09-30T15:53:45.677Z,6.28
2023-09-30T15:58:47.273Z,8.48
2023-09-30T16:03:48.985Z,9.60
2023-09-30T16:08:50.762Z,9.65
2023-09-30T16:13:53.099Z,8.85
2023-09-30T16:18:54.779Z,9.15
2023-09-30T16:23:56.654Z,7.95
2023-09-30T16:28:59.769Z,8.32
2023-09-30T16:34:03.116Z,5.50
2023-09-30T16:39:04.771Z,7.80
2023-09-30T16:44:06.863Z,8.82
2023-09-30T16:49:10.178Z,7.20
2023-09-30T16:54:11.877Z,7.13
2023-09-30T16:59:14.966Z,11.48
2023-09-30T17:04:16.986Z,9.40
2023-09-30T17:09:18.749Z,9.50
2023-09-30T17:14:20.356Z,13.82
2023-09-30T17:19:23.618Z,9.70
2023-09-30T17:24:25.322Z,11.75
2023-09-30T17:29:27.052Z,11.50
2023-09-30T17:34:28.666Z,13.20
2023-09-30T17:39:30.860Z,11.90
2023-09-30T17:44:32.448Z,13.02
2023-09-30T17:49:34.046Z,14.07
2023-09-30T17:54:35.696Z,13.63
2023-09-30T17:59:37.851Z,11.18
2023-09-30T18:04:43.183Z,9.80
2023-09-30T18:09:45.015Z,9.75
2023-09-30T18:14:46.699Z,10.20
2023-09-30T18:19:48.712Z,8.57
2023-09-30T18:24:50.721Z,8.45
2023-09-30T18:29:52.381Z,14.23
2023-09-30T18:34:55.024Z,10.13
2023-09-30T18:39:56.745Z,8.35
2023-09-30T18:44:58.433Z,7.25
2023-09-30T18:50:00.059Z,10.80
2023-09-30T18:55:03.346Z,8.32
2023-09-30T19:00:06.802Z,11.18
2023-09-30T19:05:09.569Z,9.60
2023-09-30T19:10:11.485Z,13.02
2023-09-30T19:15:13.667Z,8.80
2023-09-30T19:20:16.097Z,9.40
2023-09-30T19:25:18.102Z,14.73
2023-09-30T19:30:20.424Z,14.05
2023-09-30T19:35:23.597Z,12.98
2023-09-30T19:40:25.216Z,14.65
2023-09-30T19:45:27.547Z,11.68
2023-09-30T19:50:30.159Z,14.98
2023-09-30T19:55:31.813Z,11.63
2023-09-30T20:00:40.385Z,15.98
2023-09-30T20:05:42.079Z,13.45
2023-09-30T20:10:43.767Z,12.35
2023-09-30T20:15:45.451Z,15.75
2023-09-30T20:20:47.097Z,14.60
2023-09-30T20:25:48.724Z,12.70
2023-09-30T20:35:53.300Z,13.57
2023-09-30T20:40:54.978Z,11.30
2023-09-30T20:45:56.635Z,15.52
2023-09-30T20:50:58.278Z,15.15
2023-09-30T20:56:00.816Z,15.38
2023-09-30T21:01:12.388Z,13.52
2023-09-30T21:06:14.424Z,14.98
2023-09-30T21:11:16.008Z,12.85
2023-09-30T21:16:17.760Z,15.23
2023-09-30T21:21:22.756Z,12.73
2023-09-30T21:26:24.417Z,18.35
2023-09-30T21:31:29.758Z,19.63
2023-09-30T21:36:33.040Z,18.90
2023-09-30T21:41:35.846Z,17.83
2023-09-30T21:46:38.035Z,22.40
2023-09-30T21:51:39.759Z,21.52
2023-09-30T21:56:42.023Z,18.88
2023-09-30T22:01:44.613Z,17.85
2023-09-30T22:06:47.824Z,20.88
2023-09-30T22:11:52.153Z,20.75
2023-09-30T22:16:53.836Z,19.10
2023-09-30T22:21:55.548Z,19.75
2023-09-30T22:26:57.274Z,15.23
2023-09-30T22:31:59.144Z,16.35
2023-09-30T22:37:00.820Z,14.85
2023-09-30T22:42:02.433Z,13.73
2023-09-30T22:47:04.153Z,14.73
2023-09-30T22:52:05.880Z,16.83
2023-09-30T22:57:07.505Z,17.10
2023-09-30T23:02:09.224Z,13.63
2023-09-30T23:07:12.956Z,14.52
2023-09-30T23:12:16.466Z,14.98
2023-09-30T23:17:18.186Z,14.65
2023-09-30T23:22:19.895Z,12.32
2023-09-30T23:27:21.921Z,11.45
2023-09-30T23:32:26.046Z,16.45
2023-09-30T23:37:27.684Z,13.00
2023-09-30T23:42:29.320Z,14.75
2023-09-30T23:47:44.869Z,14.82
2023-09-30T23:52:59.026Z,13.13
2023-09-30T23:58:02.805Z,14.27
